createdAt,value
2023-03-29T00:02:48.959Z,73.89
2023-03-29T00:07:54.172Z,73.68
2023-03-29T00:12:57.232Z,73.96
2023-03-29T00:17:59.967Z,73.88
2023-03-29T00:23:02.629Z,73.83
2023-03-29T00:28:05.442Z,73.78
2023-03-29T00:33:08.563Z,73.85
2023-03-29T00:38:11.290Z,73.86
2023-03-29T00:43:15.865Z,74.01
2023-03-29T00:48:23.865Z,74.03
2023-03-29T00:53:35.777Z,74.47
2023-03-29T00:58:47.718Z,74.75
2023-03-29T01:03:57.473Z,74.87
2023-03-29T01:09:03.853Z,74.88
2023-03-29T01:14:12.371Z,74.75
2023-03-29T01:19:19.154Z,74.79
2023-03-29T01:24:27.793Z,74.89
2023-03-29T01:29:46.061Z,75.26
2023-03-29T01:34:56.791Z,75.55
2023-03-29T01:40:00.705Z,75.89
2023-03-29T01:45:21.818Z,75.98
2023-03-29T01:50:46.105Z,75.94
2023-03-29T01:55:59.582Z,76.44
2023-03-29T02:01:09.938Z,76.65
2023-03-29T02:06:19.044Z,76.94
2023-03-29T02:11:24.338Z,77.51
2023-03-29T02:16:27.674Z,77.67
2023-03-29T02:21:40.282Z,78.03
2023-03-29T02:26:42.929Z,78.15
2023-03-29T02:31:49.292Z,79.09
2023-03-29T02:36:56.668Z,79.33
2023-03-29T02:41:59.802Z,79.72
2023-03-29T02:47:08.087Z,80.37
2023-03-29T02:52:17.866Z,81.48
2023-03-29T02:57:26.670Z,82.25
2023-03-29T03:02:29.681Z,81.73
2023-03-29T03:07:33.766Z,81.95
2023-03-29T03:12:37.468Z,82.02
2023-03-29T03:17:40.963Z,82.37
2023-03-29T03:22:48.819Z,82.73
2023-03-29T03:27:51.625Z,83.55
2023-03-29T03:32:54.948Z,84.14
2023-03-29T03:37:57.922Z,84.05
2023-03-29T03:43:00.755Z,84.29
2023-03-29T03:48:03.562Z,85.04
2023-03-29T03:53:07.172Z,85.95
2023-03-29T03:58:09.810Z,86.09
2023-03-29T04:03:12.606Z,86.54
2023-03-29T04:08:15.397Z,86.53
2023-03-29T04:13:18.288Z,86.91
2023-03-29T04:18:22.094Z,86.89
2023-03-29T04:23:24.832Z,87.40
2023-03-29T04:28:27.441Z,87.26
2023-03-29T04:33:30.047Z,87.53
2023-03-29T04:38:35.961Z,87.23
2023-03-29T04:43:40.106Z,87.28
2023-03-29T04:48:43.551Z,87.67
2023-03-29T04:53:46.292Z,87.60
2023-03-29T04:58:49.609Z,87.87
2023-03-29T05:03:52.606Z,88.18
2023-03-29T05:08:55.278Z,88.18
2023-03-29T05:14:02.286Z,87.91
2023-03-29T05:19:05.595Z,87.79
2023-03-29T05:24:08.375Z,87.81
2023-03-29T05:29:12.237Z,87.60
2023-03-29T05:34:14.933Z,87.18
2023-03-29T05:39:17.739Z,86.87
2023-03-29T05:44:20.723Z,86.10
2023-03-29T05:49:23.843Z,85.43
2023-03-29T05:54:27.207Z,84.99
2023-03-29T05:59:29.867Z,84.78
2023-03-29T06:04:33.598Z,84.37
2023-03-29T06:09:36.345Z,83.69
2023-03-29T06:14:39.014Z,82.97
2023-03-29T06:19:41.875Z,83.26
2023-03-29T06:24:44.473Z,82.42
2023-03-29T06:29:48.122Z,81.75
2023-03-29T06:34:50.930Z,81.16
2023-03-29T06:39:53.893Z,80.48
2023-03-29T06:44:56.518Z,79.49
2023-03-29T06:49:59.215Z,78.58
2023-03-29T06:55:01.939Z,76.99
2023-03-29T07:00:19.245Z,76.34
2023-03-29T07:05:22.297Z,76.99
2023-03-29T07:10:28.259Z,76.41
2023-03-29T07:15:30.895Z,76.61
2023-03-29T07:20:33.814Z,74.62
2023-03-29T07:25:38.226Z,73.06
2023-03-29T07:30:40.882Z,73.91
2023-03-29T07:35:45.152Z,72.52
2023-03-29T07:40:47.996Z,72.76
2023-03-29T07:45:52.663Z,72.46
2023-03-29T07:50:55.973Z,70.35
2023-03-29T07:55:58.625Z,68.26
2023-03-29T08:01:01.647Z,68.60
2023-03-29T08:06:05.034Z,68.31
2023-03-29T08:11:08.862Z,67.41
2023-03-29T08:16:11.816Z,67.08
2023-03-29T08:21:14.788Z,64.98
2023-03-29T08:26:18.108Z,65.07
2023-03-29T08:31:20.873Z,65.01
2023-03-29T08:36:23.559Z,64.22
2023-03-29T08:41:32.170Z,63.94
2023-03-29T08:47:08.322Z,64.08
2023-03-29T08:52:28.931Z,58.65
2023-03-29T08:57:36.074Z,55.19
2023-03-29T09:02:41.410Z,51.19
2023-03-29T09:07:44.323Z,49.01
2023-03-29T09:13:15.454Z,48.97
2023-03-29T09:18:33.997Z,48.78
2023-03-29T09:24:06.760Z,46.98
2023-03-29T09:29:22.185Z,46.48
2023-03-29T09:34:43.657Z,45.54
2023-03-29T09:39:46.319Z,46.07
2023-03-29T09:44:57.160Z,46.61
2023-03-29T09:50:08.489Z,46.30
2023-03-29T09:55:27.696Z,46.06
2023-03-29T10:00:32.018Z,46.02
2023-03-29T10:05:39.979Z,46.79
2023-03-29T10:10:42.725Z,43.44
2023-03-29T10:16:02.197Z,41.78
2023-03-29T10:21:05.935Z,42.03
2023-03-29T10:26:23.854Z,41.99
2023-03-29T10:31:29.546Z,40.20
2023-03-29T10:36:32.794Z,38.87
2023-03-29T10:41:35.999Z,37.62
2023-03-29T10:46:43.983Z,38.93
2023-03-29T10:51:49.325Z,39.25
2023-03-29T10:57:02.512Z,39.82
2023-03-29T11:02:36.972Z,39.18
2023-03-29T11:08:21.339Z,38.59
2023-03-29T11:13:29.730Z,39.39
2023-03-29T11:18:50.507Z,36.72
2023-03-29T11:24:33.958Z,35.87
2023-03-29T11:29:57.045Z,37.99
2023-03-29T11:35:24.528Z,37.39
2023-03-29T11:40:53.273Z,37.27
2023-03-29T11:46:03.631Z,37.54
2023-03-29T11:51:16.239Z,35.56
2023-03-29T11:56:29.615Z,35.00
2023-03-29T12:01:39.072Z,36.41
2023-03-29T12:07:17.352Z,38.49
2023-03-29T12:12:27.102Z,35.71
2023-03-29T12:18:01.850Z,35.77
2023-03-29T12:23:07.352Z,36.32
2023-03-29T12:28:18.202Z,36.27
2023-03-29T12:33:40.173Z,37.49
2023-03-29T12:38:44.027Z,36.64
2023-03-29T12:43:48.062Z,36.07
2023-03-29T12:48:57.089Z,32.34
2023-03-29T12:54:15.876Z,34.61
2023-03-29T12:59:46.035Z,35.07
2023-03-29T13:04:57.185Z,33.94
2023-03-29T13:10:08.265Z,33.99
2023-03-29T13:15:17.588Z,32.52
2023-03-29T13:20:37.297Z,32.67
2023-03-29T13:26:19.840Z,32.22
2023-03-29T13:31:52.240Z,33.81
2023-03-29T13:37:08.032Z,34.54
2023-03-29T13:42:22.392Z,34.37
2023-03-29T13:47:43.194Z,34.99
2023-03-29T13:53:05.116Z,33.63
2023-03-29T13:58:16.020Z,33.87
2023-03-29T14:03:26.143Z,35.02
2023-03-29T14:08:37.369Z,33.48
2023-03-29T14:13:40.078Z,33.72
2023-03-29T14:18:44.707Z,33.26
2023-03-29T14:24:02.396Z,32.63
2023-03-29T14:29:07.141Z,31.53
2023-03-29T14:34:15.916Z,31.42
2023-03-29T14:39:21.420Z,30.47
2023-03-29T14:44:27.095Z,30.24
2023-03-29T14:49:30.268Z,29.04
2023-03-29T14:54:34.009Z,28.92
2023-03-29T14:59:38.802Z,29.58
2023-03-29T15:04:41.472Z,30.75
2023-03-29T15:09:45.363Z,31.52
2023-03-29T15:14:51.143Z,30.97
2023-03-29T15:19:59.007Z,31.35
2023-03-29T15:25:02.090Z,32.46
2023-03-29T15:30:12.832Z,33.82
2023-03-29T15:35:24.584Z,35.29
2023-03-29T15:40:28.169Z,36.10
2023-03-29T15:45:30.817Z,37.77
2023-03-29T15:50:34.012Z,38.45
2023-03-29T15:55:41.187Z,39.44
2023-03-29T16:00:48.499Z,40.27
2023-03-29T16:05:54.126Z,41.29
2023-03-29T16:10:56.759Z,42.32
2023-03-29T16:15:59.431Z,43.19
2023-03-29T16:21:02.159Z,43.90
2023-03-29T16:26:06.386Z,44.52
2023-03-29T16:31:13.729Z,45.15
2023-03-29T16:36:16.949Z,45.60
2023-03-29T16:41:19.901Z,46.19
2023-03-29T16:46:23.268Z,46.83
2023-03-29T16:51:26.425Z,47.33
2023-03-29T16:56:29.669Z,47.85
2023-03-29T17:01:32.564Z,48.31
2023-03-29T17:06:35.974Z,48.90
2023-03-29T17:11:38.928Z,49.30
2023-03-29T17:16:41.854Z,49.96
2023-03-29T17:21:45.948Z,50.66
2023-03-29T17:26:49.335Z,51.29
2023-03-29T17:31:52.014Z,51.70
2023-03-29T17:36:56.297Z,52.45
2023-03-29T17:41:59.672Z,52.98
2023-03-29T17:47:02.591Z,53.61
2023-03-29T17:52:05.346Z,54.07
2023-03-29T17:57:08.287Z,54.52
2023-03-29T18:02:19.280Z,54.96
2023-03-29T18:07:22.018Z,55.59
2023-03-29T18:12:26.204Z,55.78
2023-03-29T18:17:29.252Z,56.44
2023-03-29T18:22:34.123Z,56.69
2023-03-29T18:27:39.250Z,56.96
2023-03-29T18:32:43.360Z,57.36
2023-03-29T18:37:47.366Z,57.77
2023-03-29T18:42:52.211Z,58.04
2023-03-29T18:47:57.798Z,58.22
2023-03-29T18:53:01.660Z,58.52
2023-03-29T18:58:07.204Z,58.76
2023-03-29T19:03:12.200Z,58.93
2023-03-29T19:08:15.092Z,59.15
2023-03-29T19:13:18.430Z,59.45
2023-03-29T19:18:22.191Z,59.90
2023-03-29T19:23:28.614Z,59.88
2023-03-29T19:28:33.130Z,59.91
2023-03-29T19:33:35.766Z,59.80
2023-03-29T19:38:38.489Z,59.78
2023-03-29T19:43:44.124Z,59.89
2023-03-29T19:48:48.930Z,59.79
2023-03-29T19:53:54.048Z,59.95
2023-03-29T19:59:03.229Z,60.03
2023-03-29T20:04:09.302Z,59.90
2023-03-29T20:09:12.963Z,60.19
2023-03-29T20:14:16.276Z,60.57
2023-03-29T20:19:24.657Z,61.14
2023-03-29T20:24:27.901Z,61.52
2023-03-29T20:29:33.161Z,61.75
2023-03-29T20:34:36.008Z,62.35
2023-03-29T20:39:38.621Z,62.80
2023-03-29T20:44:41.271Z,62.81
2023-03-29T20:49:46.895Z,63.01
2023-03-29T20:54:50.520Z,62.87
2023-03-29T20:59:53.369Z,62.55
2023-03-29T21:05:00.194Z,62.45
2023-03-29T21:10:03.055Z,62.12
2023-03-29T21:15:10.209Z,61.73
2023-03-29T21:20:14.688Z,61.56
2023-03-29T21:25:17.402Z,60.91
2023-03-29T21:30:20.045Z,60.65
2023-03-29T21:35:22.674Z,60.42
2023-03-29T21:40:25.378Z,60.53
2023-03-29T21:45:28.037Z,60.28
2023-03-29T21:50:33.374Z,60.10
2023-03-29T21:55:36.538Z,60.13
2023-03-29T22:00:39.259Z,60.06
2023-03-29T22:05:42.251Z,59.80
2023-03-29T22:10:44.865Z,59.75
2023-03-29T22:15:49.746Z,59.44
2023-03-29T22:20:52.418Z,59.51
2023-03-29T22:25:55.288Z,59.52
2023-03-29T22:31:01.875Z,59.25
2023-03-29T22:36:22.806Z,58.94
2023-03-29T22:41:27.556Z,58.82
2023-03-29T22:46:30.303Z,58.69
2023-03-29T22:51:33.101Z,58.56
2023-03-29T22:56:35.735Z,58.75
2023-03-29T23:01:38.447Z,58.71
2023-03-29T23:06:41.554Z,58.80
2023-03-29T23:11:44.180Z,58.78
2023-03-29T23:16:47.509Z,59.02
2023-03-29T23:21:50.551Z,59.28
2023-03-29T23:26:53.160Z,59.39
2023-03-29T23:31:56.920Z,59.59
2023-03-29T23:36:59.723Z,59.77
2023-03-29T23:42:03.428Z,59.98
2023-03-29T23:47:06.180Z,60.17
2023-03-29T23:52:10.337Z,60.56
2023-03-29T23:57:13.087Z,60.85
